Terminal Aerodrome Forecast
Issued by NWS

Home | Current Version | Previous Version | Text Only | Print | Product List | Glossary On
Versions: 1 2 3 4 5 6 7 8 9 10 11 12 13 14 15
000
FTUS41 KBOX 261736
TAFHYA
TAF
KHYA 261736Z 2618/2718 31006KT P6SM SCT250
     FM262000 22008KT P6SM FEW250
     FM270600 20008KT P6SM BKN090
     FM271000 20010G22KT 6SM -SHRA BKN040
     FM271200 20011G22KT 3SM SHRA BR OVC020
     FM271300 21011G22KT 3SM SHRA BR OVC015
     FM271700 23011G19KT 2SM -SHRA BR OVC008=

USA.gov is the U.S. government's official web portal to all federal, state and local government web resources and services.